Detall de PIREP

Printer-friendly versionPDF version

[2014/10/24 09:09:00]
Flight IATA:CT3416
Pilot Number:042
Company ICAO:CAT
Aircraft Type:A320/E
PAX:96
Departing Airport: LEBL
Destination Airport: LATI
Alternate Airport:LYPG
Online: VATSIM
Route:VERSO/M080F340 UM24 LAPIT UN725 ORKUM/M080F350 UM603 BRD UP92 PAPIZ P92 DIRES
Flight Level:F350
No Slew and time accel
No pause
Crash detect
Detect pilot in Cockpit between each 30 and 45 minutes
09:09 Zero fuel Weight: 124282 Lbs, Fuel Weight: 41730 Lbs
09:09 VATSIM:LEBL 240800Z 32011KT CAVOK 16/05 Q1016 NOSIG
09:09 VATSIM:LATI 240750Z 00000KT 9999 FEW050 SCT076 BKN140 11/07 Q1006 NOSIG
09:17 Parking Brakes off
09:33 Take-off
09:33 Take off Weight: 164030 Lbs
09:33 Wind: 319º @ 010 Knots Heading: 244º
09:33 POS N41º 16´ 56´´ E002º 04´ 28´´
09:33 Gear Up: 146 Knots
09:33 Flaps:3 at 146 Knots
09:34 Flaps:2 at 170 Knots
09:34 Flaps:0 at 193 Knots
09:48 Wind:342º@023 Knots Heading: 072º Ground Speed: 445 Knots Altitude 27191 ft
09:56 TOC
09:56 Fuel Weight: 35578 Lb
10:03 Wind:334º@032 Knots Heading: 094º Ground Speed: 463 Knots Altitude 35059 ft
10:18 Wind:351º@048 Knots Heading: 077º Ground Speed: 447 Knots Altitude 35019 ft
10:33 Wind:358º@045 Knots Heading: 079º Ground Speed: 442 Knots Altitude 34980 ft
10:48 Wind:001º@052 Knots Heading: 100º Ground Speed: 456 Knots Altitude 34888 ft
11:03 Wind:006º@055 Knots Heading: 082º Ground Speed: 438 Knots Altitude 34875 ft
11:16 TOD
11:16 Fuel Weight: 28952 Lb
11:18 Wind:025º@041 Knots Heading: 081º Ground Speed: 431 Knots Altitude 30941 ft
11:30 Flaps:1 at 221 Knots
11:33 Wind:081º@010 Knots Heading: 117º Ground Speed: 192 Knots Altitude 6948 ft
11:37 Flaps:3 at 176 Knots
11:37 Gear Down: 172 Knots
11:38 Flaps:4 at 158 Knots
11:38 Flaps:5 at 158 Knots
11:41 TouchDown:Rate -390 ft/min Speed: 127 Knots
11:42 VATSIM:LATI 241020Z 31006KT 9999 BKN090 15/08 Q1006 NOSIG
11:42 Land
11:42 Wind:310º@006 Knots
11:42 Heading: 349º
11:42 Flight Duration: 02:09
11:42 Landing Weight: 151926 Lbs
11:42 POS N41º 24´ 58´´ E019º 43´ 13´´
11:43 Parking brakes on
11:43 Block to Block Duration: 02:26
11:43 Final Fuel: 27484 Lbls
11:43 Spent Fuel: 14246 Lbls
11:43 Flight Length: 868 NM
11:43 TOD Land Length: 119 NM

Exportar CSV

Powered by Drupal - Modified by Danger4k